UKLU/UDJ METAR and TAF weather

Enter ICAO airport designator
Station Type Date Time Source
UKLU METAR 2020/02/26 09:30 UTC NOAA

UKLU 260930Z VRB02MPS 3100 -RA OVC016 08/06 Q0995 R10/290160 NOSIG


Station Type Date Time Source
UKLU Decoded METAR 2020/02/26 09:30 UTC NOAA

Uzhhorod, Ukraine (UKLU) 48-38-05N 022-15-53E
Feb 26, 2020 - 04:30 AM EST / 2020.02.26 0930 UTC
Wind: Variable at 4 MPH (4 KT):0
Visibility: 1 mile(s):0
Sky conditions: overcast
Weather: light rain
Temperature: 46 F (8 C)
Dew Point: 42 F (6 C)
Relative Humidity: 87%
Pressure (altimeter): 29.38 in. Hg (0995 hPa)
ob: UKLU 260930Z VRB02MPS 3100 -RA OVC016 08/06 Q0995 R10/290160 NOSIG
cycle: 9

Station Type Date Time Source
UKLU TAF 2019/04/25 06:24 UTC NOAA

TAF TAF UKLU 250504Z 2506/2615 12005MPS 9999 NSC
TEMPO 2506/2512 15007G12MPS SCT040

Example: see airport list